Time;durP1;ratioP1;P1;durP2;ratioP2;P2;SDS_P1;SDS_P2;PMS_P1;PMS_P2;Temp;Humidity;BMP_temperature;BMP_pressure;BME280_temperature;BME280_humidity;BME280_pressure;Samples;Min_cycle;Max_cycle;Signal;HPM_P1;HPM_P2
2022/08/07 00:00:55;;;;;;;6.97;3.15;;;11.50;99.90;;;;;;5038632;28;20128;-82
2022/08/07 00:03:22;;;;;;;4.40;2.20;;;11.50;99.90;;;;;;5038551;28;20200;-81
2022/08/07 00:05:51;;;;;;;4.05;2.13;;;11.50;99.90;;;;;;5048631;28;20045;-81
2022/08/07 00:08:17;;;;;;;4.53;2.60;;;11.70;99.90;;;;;;5038856;28;20041;-82
2022/08/07 00:10:44;;;;;;;4.75;2.20;;;11.50;99.90;;;;;;5038324;28;20070;-81
2022/08/07 00:13:10;;;;;;;3.88;2.15;;;11.50;99.90;;;;;;5038243;28;20048;-81
2022/08/07 00:15:36;;;;;;;4.18;2.00;;;11.40;99.90;;;;;;5034053;28;20116;-81
2022/08/07 00:18:03;;;;;;;4.57;2.22;;;11.40;99.90;;;;;;5035216;28;20037;-81
2022/08/07 00:20:28;;;;;;;4.72;2.25;;;11.40;99.90;;;;;;5051454;28;20052;-81
2022/08/07 00:22:54;;;;;;;4.95;2.47;;;11.30;99.90;;;;;;5021791;28;20045;-81
2022/08/07 00:25:23;;;;;;;3.63;2.00;;;11.30;99.90;;;;;;5054502;28;20037;-81
2022/08/07 00:27:50;;;;;;;4.88;2.95;;;11.30;99.90;;;;;;5037042;28;20436;-81
2022/08/07 00:30:16;;;;;;;3.42;2.05;;;11.30;99.90;;;;;;5038493;28;20050;-81
2022/08/07 00:32:42;;;;;;;4.55;2.42;;;11.30;99.90;;;;;;5021447;28;20049;-82
2022/08/07 00:35:08;;;;;;;5.10;2.65;;;11.30;99.90;;;;;;5038058;28;20052;-82
2022/08/07 00:37:34;;;;;;;5.13;2.72;;;11.30;99.90;;;;;;5053000;28;20037;-82
2022/08/07 00:40:00;;;;;;;6.40;2.65;;;11.20;99.90;;;;;;5024734;28;20036;-82
2022/08/07 00:42:26;;;;;;;6.63;2.72;;;11.20;99.90;;;;;;5057851;28;20072;-82
2022/08/07 00:44:51;;;;;;;5.30;2.53;;;11.20;99.90;;;;;;5057514;28;20045;-82
2022/08/07 00:47:17;;;;;;;3.88;2.20;;;11.20;99.90;;;;;;5036481;28;20056;-79
2022/08/07 00:49:43;;;;;;;4.03;2.53;;;11.10;99.90;;;;;;5023878;28;20550;-80
2022/08/07 00:52:09;;;;;;;4.55;2.22;;;11.10;99.90;;;;;;5057308;28;20044;-80
2022/08/07 00:54:34;;;;;;;4.93;2.83;;;11.70;99.90;;;;;;5057189;28;20048;-80
2022/08/07 00:57:00;;;;;;;4.03;2.45;;;11.00;99.90;;;;;;5055811;28;20041;-79
2022/08/07 00:59:26;;;;;;;4.78;2.70;;;11.00;99.90;;;;;;5026815;28;20047;-79
2022/08/07 01:01:52;;;;;;;5.47;2.67;;;11.00;99.90;;;;;;5056979;28;20040;-79
2022/08/07 01:04:19;;;;;;;4.93;2.55;;;11.00;99.90;;;;;;5039997;28;20530;-79
2022/08/07 01:06:45;;;;;;;5.28;2.78;;;11.00;99.90;;;;;;5040052;28;20139;-79
2022/08/07 01:09:11;;;;;;;4.30;2.08;;;11.00;99.90;;;;;;5055258;28;20112;-79
2022/08/07 01:11:37;;;;;;;3.78;2.00;;;11.40;99.90;;;;;;5056297;28;20044;-80
2022/08/07 01:14:03;;;;;;;4.45;2.33;;;11.00;99.90;;;;;;5040228;28;20433;-80
2022/08/07 01:16:29;;;;;;;3.58;2.17;;;10.90;99.90;;;;;;5039920;28;20075;-79
2022/08/07 01:18:55;;;;;;;3.40;2.00;;;10.90;99.90;;;;;;5039647;28;20067;-79
2022/08/07 01:21:23;;;;;;;4.00;2.30;;;10.90;99.90;;;;;;5055894;28;20133;-81
2022/08/07 01:23:50;;;;;;;5.55;2.53;;;10.90;99.90;;;;;;5056571;28;20079;-81
2022/08/07 01:26:19;;;;;;;6.28;2.53;;;10.80;99.90;;;;;;5056559;28;20037;-81
2022/08/07 01:28:47;;;;;;;4.63;2.63;;;10.90;99.90;;;;;;5055601;28;20511;-81
2022/08/07 01:31:14;;;;;;;4.80;2.50;;;10.90;99.90;;;;;;5056059;28;20088;-81
2022/08/07 01:33:41;;;;;;;3.80;2.42;;;10.90;99.90;;;;;;5056825;28;20044;-81
2022/08/07 01:36:09;;;;;;;5.28;2.42;;;10.80;99.90;;;;;;5040123;28;20059;-81
2022/08/07 01:38:35;;;;;;;4.80;2.53;;;10.90;99.90;;;;;;5054471;28;20083;-82
2022/08/07 01:41:03;;;;;;;3.90;2.10;;;10.90;99.90;;;;;;5055413;28;20494;-82
2022/08/07 01:43:29;;;;;;;4.25;2.30;;;10.80;99.90;;;;;;5055898;28;20116;-82
2022/08/07 01:45:56;;;;;;;5.53;2.70;;;10.80;99.90;;;;;;5053390;23;20475;-81
2022/08/07 01:48:23;;;;;;;4.60;2.20;;;10.90;99.90;;;;;;5035985;28;20107;-81
2022/08/07 01:50:56;;;;;;;3.78;2.40;;;10.80;99.90;;;;;;5036369;28;20095;-82
2022/08/07 01:53:23;;;;;;;4.72;2.10;;;10.80;99.90;;;;;;5040387;28;20045;-81
2022/08/07 01:55:53;;;;;;;3.33;1.90;;;10.70;99.90;;;;;;5056306;28;20094;-81
2022/08/07 01:58:21;;;;;;;4.25;2.00;;;10.70;99.90;;;;;;5024949;28;20045;-81
2022/08/07 02:01:01;;;;;;;3.58;2.08;;;10.70;99.90;;;;;;5023588;28;20042;-80
2022/08/07 02:03:31;;;;;;;4.13;2.20;;;10.60;99.90;;;;;;5019446;28;20051;-81
2022/08/07 02:06:02;;;;;;;3.88;2.30;;;10.60;99.90;;;;;;5033268;28;20125;-81
2022/08/07 02:08:32;;;;;;;4.22;2.38;;;10.60;99.90;;;;;;5071631;28;20097;-80
2022/08/07 02:10:59;;;;;;;4.32;2.50;;;10.60;99.90;;;;;;5024786;28;20044;-82
2022/08/07 02:13:29;;;;;;;5.38;2.65;;;10.60;99.90;;;;;;5036605;28;20048;-83
2022/08/07 02:15:59;;;;;;;3.88;2.08;;;10.60;99.90;;;;;;5036003;28;20045;-82
2022/08/07 02:18:27;;;;;;;3.90;2.20;;;10.60;99.90;;;;;;5020320;28;20037;-83
2022/08/07 02:20:55;;;;;;;3.78;2.10;;;10.50;99.90;;;;;;5017348;28;20040;-82
2022/08/07 02:23:22;;;;;;;4.03;2.00;;;10.60;99.90;;;;;;5047954;28;20115;-83
2022/08/07 02:25:49;;;;;;;4.80;2.20;;;10.60;99.90;;;;;;5036162;28;20107;-82
2022/08/07 02:28:16;;;;;;;4.57;2.25;;;10.60;99.90;;;;;;5047364;28;20379;-82
2022/08/07 02:30:43;;;;;;;4.35;2.33;;;10.50;99.90;;;;;;5037123;28;20044;-82
2022/08/07 02:33:11;;;;;;;4.60;2.88;;;10.50;99.90;;;;;;5033430;28;20060;-82
2022/08/07 02:35:38;;;;;;;6.18;3.00;;;10.50;99.90;;;;;;5032585;28;20037;-82
2022/08/07 02:38:07;;;;;;;3.58;2.08;;;10.50;99.90;;;;;;5037402;28;20413;-82
2022/08/07 02:40:33;;;;;;;3.45;1.90;;;10.50;99.90;;;;;;5028591;28;20132;-82
2022/08/07 02:43:01;;;;;;;4.47;2.40;;;10.50;99.90;;;;;;5032441;28;20041;-82
2022/08/07 02:45:29;;;;;;;3.58;1.80;;;10.40;99.90;;;;;;5036112;28;20126;-82
2022/08/07 02:47:55;;;;;;;4.55;2.22;;;10.50;99.90;;;;;;5019352;28;20120;-82
2022/08/07 02:50:21;;;;;;;4.30;2.42;;;10.40;99.90;;;;;;5036175;28;20148;-82
2022/08/07 02:52:54;;;;;;;4.70;2.47;;;10.40;99.90;;;;;;5035909;28;20052;-82
2022/08/07 02:55:26;;;;;;;5.50;2.13;;;10.40;99.90;;;;;;5019179;28;20045;-82
2022/08/07 02:57:57;;;;;;;5.07;2.47;;;10.40;99.90;;;;;;5002658;28;20038;-82
2022/08/07 03:00:26;;;;;;;3.28;1.77;;;10.30;99.90;;;;;;5011448;28;20147;-82
2022/08/07 03:02:53;;;;;;;4.18;2.30;;;10.30;99.90;;;;;;5016122;28;20073;-81
2022/08/07 03:05:19;;;;;;;5.05;2.20;;;10.30;99.90;;;;;;4999953;28;20046;-81
2022/08/07 03:07:46;;;;;;;6.05;2.03;;;10.30;99.90;;;;;;5000006;28;20152;-81
2022/08/07 03:10:13;;;;;;;4.18;2.22;;;10.30;99.90;;;;;;4999515;28;20487;-81
2022/08/07 03:12:40;;;;;;;3.25;1.83;;;10.30;99.90;;;;;;5032787;28;20087;-81
2022/08/07 03:15:07;;;;;;;3.65;1.90;;;10.30;99.90;;;;;;5035551;28;20052;-82
2022/08/07 03:17:33;;;;;;;4.22;2.08;;;10.30;99.90;;;;;;5019201;28;20052;-81
2022/08/07 03:20:00;;;;;;;5.20;2.45;;;10.30;99.90;;;;;;5025214;28;20076;-81
2022/08/07 03:22:27;;;;;;;4.78;2.30;;;10.30;99.90;;;;;;5032557;28;20124;-81
2022/08/07 03:24:52;;;;;;;4.18;1.90;;;10.30;99.90;;;;;;5001072;28;20499;-81
2022/08/07 03:27:19;;;;;;;4.82;2.83;;;10.20;99.90;;;;;;5027100;28;20049;-81
2022/08/07 03:29:51;;;;;;;4.53;2.22;;;10.20;99.90;;;;;;5007790;28;20037;-81
2022/08/07 03:32:22;;;;;;;3.47;1.77;;;10.30;99.90;;;;;;5029200;28;20133;-81
2022/08/07 03:34:50;;;;;;;5.55;2.15;;;10.20;99.90;;;;;;5017920;28;20065;-79
2022/08/07 03:37:18;;;;;;;4.32;2.10;;;10.20;99.90;;;;;;5004447;28;20041;-79
2022/08/07 03:39:46;;;;;;;3.63;2.40;;;10.10;99.90;;;;;;5021452;28;20110;-80
2022/08/07 03:42:14;;;;;;;2.97;1.90;;;10.20;99.90;;;;;;5020790;28;20057;-79
2022/08/07 03:44:40;;;;;;;4.85;2.38;;;10.20;99.90;;;;;;5027000;28;20041;-79
2022/08/07 03:47:07;;;;;;;5.53;2.70;;;10.70;99.90;;;;;;5035003;28;20470;-79
2022/08/07 03:49:34;;;;;;;4.57;2.30;;;10.20;99.90;;;;;;5011159;28;20057;-80
2022/08/07 03:52:00;;;;;;;2.75;1.60;;;10.10;99.90;;;;;;5006842;28;20076;-81
2022/08/07 03:54:26;;;;;;;3.05;1.70;;;10.10;99.90;;;;;;5025582;28;20038;-81
2022/08/07 03:56:54;;;;;;;4.00;2.28;;;10.10;99.90;;;;;;5020225;28;20457;-81
2022/08/07 03:59:21;;;;;;;4.78;1.95;;;10.20;99.90;;;;;;4999956;28;20528;-81
2022/08/07 04:01:47;;;;;;;4.00;2.10;;;10.20;99.90;;;;;;5025891;28;20095;-81
2022/08/07 04:04:17;;;;;;;4.47;2.38;;;10.10;99.90;;;;;;5025223;28;20038;-81
2022/08/07 04:06:43;;;;;;;6.65;2.30;;;10.20;99.90;;;;;;5001900;28;20048;-82
2022/08/07 04:09:10;;;;;;;7.10;2.25;;;10.20;99.90;;;;;;5003004;28;20038;-82
2022/08/07 04:11:37;;;;;;;4.90;2.10;;;10.20;99.90;;;;;;5013400;28;20116;-83
2022/08/07 04:14:03;;;;;;;5.15;2.78;;;10.30;99.90;;;;;;5014039;28;20042;-82
2022/08/07 04:16:30;;;;;;;3.67;2.25;;;10.30;99.90;;;;;;4993759;28;20482;-83
2022/08/07 04:18:57;;;;;;;7.53;2.67;;;10.30;99.90;;;;;;5019067;28;20080;-82
2022/08/07 04:21:22;;;;;;;4.75;2.38;;;10.40;99.90;;;;;;5001601;28;20041;-82
2022/08/07 04:23:49;;;;;;;5.55;2.25;;;10.30;99.90;;;;;;5018508;28;20050;-83
2022/08/07 04:26:15;;;;;;;5.18;2.22;;;10.30;99.90;;;;;;5027056;28;20037;-83
2022/08/07 04:28:41;;;;;;;4.32;2.28;;;10.20;99.90;;;;;;5038361;28;20044;-82
2022/08/07 04:31:07;;;;;;;3.70;1.83;;;10.30;99.90;;;;;;5038395;28;20044;-83
2022/08/07 04:33:35;;;;;;;3.97;2.03;;;10.30;99.90;;;;;;5002107;28;20049;-82
2022/08/07 04:36:03;;;;;;;3.83;1.90;;;10.30;99.90;;;;;;5013045;28;20087;-82
2022/08/07 04:38:29;;;;;;;3.72;2.10;;;10.40;99.90;;;;;;5017684;28;20041;-83
2022/08/07 04:40:55;;;;;;;3.60;2.10;;;10.40;99.90;;;;;;5002383;28;20053;-82
2022/08/07 04:43:27;;;;;;;3.97;2.15;;;10.50;99.90;;;;;;5013064;28;20181;-83
2022/08/07 04:46:07;;;;;;;3.55;2.03;;;10.50;99.90;;;;;;5020521;28;20064;-82
2022/08/07 04:48:36;;;;;;;3.60;2.30;;;10.50;99.90;;;;;;5021707;28;20056;-82
2022/08/07 04:51:19;;;;;;;3.42;1.95;;;10.60;99.90;;;;;;5017555;28;20072;-82
2022/08/07 04:54:06;;;;;;;3.35;2.08;;;10.70;99.90;;;;;;5011489;28;20080;-82
2022/08/07 04:56:40;;;;;;;;;;;10.90;99.90;;;;;;5030581;28;20037;-81
2022/08/07 04:59:44;;;;;;;4.63;2.33;;;11.10;99.90;;;;;;4982405;28;19917;-81
2022/08/07 05:02:19;;;;;;;4.30;2.15;;;11.10;99.90;;;;;;4997904;28;20041;-81
2022/08/07 05:04:48;;;;;;;3.08;1.85;;;11.10;99.90;;;;;;5016109;28;20129;-81
2022/08/07 05:07:18;;;;;;;4.30;2.08;;;11.20;99.90;;;;;;5002167;28;20048;-81
2022/08/07 05:10:07;;;;;;;3.35;1.75;;;11.40;99.90;;;;;;5020686;28;20106;-81
2022/08/07 05:12:51;;;;;;;4.03;2.30;;;11.40;99.90;;;;;;5037283;28;20045;-81
2022/08/07 05:15:25;;;;;;;4.65;2.00;;;11.60;99.90;;;;;;5024605;28;20110;-80
2022/08/07 05:18:06;;;;;;;6.00;2.38;;;12.20;99.90;;;;;;5018215;28;20046;-80
2022/08/07 05:20:45;;;;;;;9.80;3.28;;;13.00;99.90;;;;;;5013856;28;20089;-80
2022/08/07 05:23:21;;;;;;;3.55;2.00;;;13.60;99.90;;;;;;5014089;28;20565;-80
2022/08/07 05:25:50;;;;;;;4.65;2.28;;;15.10;99.90;;;;;;5027770;28;20067;-80
2022/08/07 05:28:17;;;;;;;5.13;2.25;;;15.00;99.90;;;;;;5024707;28;20460;-80
2022/08/07 05:30:43;;;;;;;5.68;2.50;;;15.10;99.90;;;;;;5017085;28;20038;-80
2022/08/07 05:33:12;;;;;;;4.70;2.20;;;15.90;99.90;;;;;;4997290;28;20113;-80
2022/08/07 05:35:38;;;;;;;4.00;2.10;;;15.40;99.90;;;;;;5019200;28;20091;-80
2022/08/07 05:38:05;;;;;;;4.45;2.00;;;15.10;99.90;;;;;;5000611;28;20046;-80
2022/08/07 05:40:35;;;;;;;4.00;1.67;;;15.30;99.90;;;;;;5014024;28;20400;-80
2022/08/07 05:43:00;;;;;;;4.82;2.33;;;15.90;99.90;;;;;;5030315;28;20077;-80
2022/08/07 05:45:27;;;;;;;3.88;1.98;;;15.70;99.90;;;;;;5026904;28;20076;-81
2022/08/07 05:47:54;;;;;;;6.00;2.58;;;15.60;99.90;;;;;;5003313;28;20540;-80
2022/08/07 05:50:21;;;;;;;4.43;2.10;;;16.90;99.90;;;;;;5017388;28;20036;-80
2022/08/07 05:52:47;;;;;;;3.70;1.90;;;17.20;99.90;;;;;;5030041;28;20050;-80
2022/08/07 05:55:13;;;;;;;4.15;2.20;;;17.40;99.90;;;;;;5014431;28;20038;-80
2022/08/07 05:57:41;;;;;;;3.22;1.77;;;18.90;99.90;;;;;;5013600;28;20095;-80
2022/08/07 06:00:08;;;;;;;4.65;2.28;;;19.80;99.90;;;;;;4994899;28;20432;-80
2022/08/07 06:02:35;;;;;;;3.25;2.05;;;20.40;99.90;;;;;;4983859;28;20412;-80
2022/08/07 06:05:21;;;;;;;3.60;1.55;;;21.40;99.90;;;;;;5014976;28;20049;-82
2022/08/07 06:07:48;;;;;;;3.38;1.88;;;22.50;99.40;;;;;;5025934;28;20041;-82
2022/08/07 06:10:14;;;;;;;2.75;1.70;;;23.30;97.30;;;;;;5017563;28;20498;-82
2022/08/07 06:12:40;;;;;;;3.97;1.73;;;24.10;96.60;;;;;;5037246;28;20100;-82
2022/08/07 06:15:10;;;;;;;3.83;1.63;;;24.70;94.70;;;;;;5010066;28;20034;-81
2022/08/07 06:17:36;;;;;;;3.15;1.63;;;25.30;92.90;;;;;;4991806;28;20124;-82
2022/08/07 06:20:02;;;;;;;4.63;1.70;;;25.80;91.90;;;;;;5014895;28;20491;-83
2022/08/07 06:22:29;;;;;;;2.97;1.75;;;26.30;92.00;;;;;;5020534;28;20553;-83
2022/08/07 06:24:58;;;;;;;3.88;1.67;;;26.70;90.40;;;;;;5018428;28;20048;-83
2022/08/07 06:27:24;;;;;;;2.55;1.50;;;27.00;88.40;;;;;;5033037;28;20055;-83
2022/08/07 06:29:51;;;;;;;3.90;2.00;;;27.30;87.60;;;;;;5009895;28;20069;-83
2022/08/07 06:32:17;;;;;;;4.45;1.55;;;27.70;85.70;;;;;;4992117;28;20373;-83
2022/08/07 06:34:42;;;;;;;2.78;1.40;;;28.00;85.90;;;;;;5010058;28;20044;-83
2022/08/07 06:37:08;;;;;;;2.67;1.63;;;28.20;84.70;;;;;;4965778;28;20060;-82
2022/08/07 06:39:34;;;;;;;3.92;1.30;;;28.30;82.00;;;;;;5011979;28;20048;-82
2022/08/07 06:42:15;;;;;;;2.33;1.40;;;28.30;81.40;;;;;;5002458;28;20029;-82
2022/08/07 06:44:44;;;;;;;1.80;1.20;;;28.00;81.70;;;;;;5011342;28;20042;-82
2022/08/07 06:47:10;;;;;;;2.80;1.48;;;27.90;80.90;;;;;;5029112;28;20083;-82
2022/08/07 06:49:36;;;;;;;2.10;1.25;;;28.00;81.60;;;;;;5048547;28;20052;-82
2022/08/07 06:52:02;;;;;;;1.88;1.10;;;28.50;80.20;;;;;;5019338;28;20499;-82
2022/08/07 06:54:30;;;;;;;5.00;1.48;;;28.80;80.40;;;;;;5035772;28;20479;-84
2022/08/07 06:56:58;;;;;;;2.55;1.40;;;29.10;77.90;;;;;;5019634;28;20124;-84
2022/08/07 06:59:28;;;;;;;1.85;1.10;;;29.50;76.90;;;;;;5004899;28;20499;-84
2022/08/07 07:01:56;;;;;;;1.65;1.00;;;29.70;77.30;;;;;;5039045;28;20120;-84
2022/08/07 07:04:23;;;;;;;2.05;1.30;;;29.80;76.60;;;;;;5041075;28;20471;-85
2022/08/07 07:06:49;;;;;;;1.33;1.05;;;30.20;75.80;;;;;;5038446;28;20037;-84
2022/08/07 07:09:22;;;;;;;1.88;1.08;;;30.70;75.20;;;;;;5036560;28;20032;-82
2022/08/07 07:12:06;;;;;;;2.38;1.08;;;30.90;74.60;;;;;;5033482;28;20045;-82
2022/08/07 07:14:38;;;;;;;1.48;0.90;;;30.70;72.00;;;;;;5045158;28;20068;-82
2022/08/07 07:17:12;;;;;;;2.85;1.10;;;30.70;74.70;;;;;;5022825;28;20068;-81
2022/08/07 07:19:45;;;;;;;0.70;0.60;;;31.00;72.70;;;;;;5028869;28;20475;-81
2022/08/07 07:22:11;;;;;;;1.45;0.90;;;31.00;72.70;;;;;;5023237;28;20033;-82
2022/08/07 07:24:38;;;;;;;1.40;0.90;;;31.30;73.20;;;;;;5021952;28;20043;-86
2022/08/07 07:27:06;;;;;;;1.10;0.70;;;31.40;72.30;;;;;;5057604;28;20049;-85
2022/08/07 07:29:36;;;;;;;0.93;0.80;;;31.70;72.20;;;;;;5051409;28;20379;-85
2022/08/07 07:32:06;;;;;;;1.70;0.93;;;31.70;71.80;;;;;;5040207;28;20105;-87
2022/08/07 07:34:37;;;;;;;1.65;1.00;;;32.10;72.40;;;;;;5043088;28;20044;-86
2022/08/07 07:37:04;;;;;;;6.63;1.63;;;32.40;71.00;;;;;;5042138;28;20081;-85
2022/08/07 07:39:33;;;;;;;2.67;1.75;;;32.20;69.90;;;;;;5058289;28;20041;-86
2022/08/07 07:42:00;;;;;;;3.22;1.98;;;32.10;68.80;;;;;;5050668;28;20052;-86
2022/08/07 07:44:27;;;;;;;3.42;1.40;;;32.10;70.70;;;;;;5038952;28;20415;-80
2022/08/07 07:46:55;;;;;;;2.33;1.60;;;32.20;70.30;;;;;;5035489;28;20081;-80
2022/08/07 07:49:25;;;;;;;2.60;1.80;;;32.00;69.70;;;;;;5034851;28;20143;-80
2022/08/07 07:51:52;;;;;;;2.88;1.73;;;31.40;70.20;;;;;;5039837;28;20033;-80
2022/08/07 07:54:19;;;;;;;1.92;1.40;;;31.80;71.30;;;;;;5022202;28;20049;-80
2022/08/07 07:56:46;;;;;;;3.15;1.77;;;32.30;71.20;;;;;;5011981;28;20494;-80
2022/08/07 07:59:13;;;;;;;3.20;1.30;;;33.00;70.50;;;;;;4998920;28;20045;-80
2022/08/07 08:01:43;;;;;;;1.98;1.38;;;33.40;69.00;;;;;;5019229;28;20060;-86
2022/08/07 08:04:11;;;;;;;2.50;1.50;;;33.50;67.20;;;;;;5018631;28;20438;-86
2022/08/07 08:06:42;;;;;;;2.78;1.52;;;32.90;67.90;;;;;;5002247;28;20479;-86
2022/08/07 08:09:09;;;;;;;2.38;1.50;;;33.20;67.70;;;;;;5019625;28;20128;-86
2022/08/07 08:11:36;;;;;;;3.15;1.60;;;33.50;68.30;;;;;;5021229;28;20037;-87
2022/08/07 08:14:02;;;;;;;2.15;1.50;;;32.90;67.70;;;;;;5014339;28;20124;-86
2022/08/07 08:16:41;;;;;;;2.22;1.40;;;33.10;67.90;;;;;;5001837;28;20125;-87
2022/08/07 08:19:09;;;;;;;4.65;1.92;;;33.20;68.60;;;;;;5002283;28;20076;-86
2022/08/07 08:27:14;;;;;;;2.65;1.65;;;31.80;68.50;;;;;;5038422;28;20045;-86
2022/08/07 08:29:43;;;;;;;3.20;1.50;;;31.60;68.50;;;;;;5038373;28;20111;-87
2022/08/07 08:32:13;;;;;;;2.55;1.48;;;30.60;69.00;;;;;;5021204;28;20487;-86
2022/08/07 08:34:40;;;;;;;2.80;1.55;;;29.00;70.40;;;;;;5018719;28;20045;-80
2022/08/07 08:37:09;;;;;;;3.17;1.88;;;27.90;73.30;;;;;;5018397;28;20034;-80
2022/08/07 08:39:36;;;;;;;2.58;1.38;;;28.40;75.00;;;;;;5017984;28;20036;-80
2022/08/07 08:42:06;;;;;;;3.00;1.65;;;29.80;71.20;;;;;;5014491;28;20120;-80
2022/08/07 08:44:51;;;;;;;2.90;1.38;;;30.50;71.60;;;;;;5010031;28;20095;-80
2022/08/07 08:47:36;;;;;;;3.63;2.20;;;30.90;70.30;;;;;;5035549;28;20128;-82
2022/08/07 08:50:24;;;;;;;2.28;1.48;;;30.60;70.20;;;;;;5014646;28;20132;-87
2022/08/07 08:53:05;;;;;;;3.95;2.17;;;31.10;69.30;;;;;;5021495;28;20046;-87
2022/08/07 08:55:49;;;;;;;2.30;1.40;;;31.40;69.30;;;;;;5020533;28;20069;-87
2022/08/07 08:58:34;;;;;;;3.15;1.48;;;32.30;69.00;;;;;;5036397;28;20040;-87
2022/08/07 09:01:26;;;;;;;2.90;1.60;;;32.30;68.20;;;;;;5037584;28;20056;-87
2022/08/07 09:04:04;;;;;;;1.95;1.30;;;32.40;67.40;;;;;;5031976;28;20423;-87
2022/08/07 09:06:57;;;;;;;3.72;1.45;;;32.50;68.50;;;;;;5037888;28;20391;-87
2022/08/07 09:09:53;;;;;;;2.25;1.38;;;33.20;67.60;;;;;;5037828;28;20072;-88
2022/08/07 09:12:19;;;;;;;;;;;31.90;66.60;;;;;;5070977;28;20399;-87
2022/08/07 09:14:49;;;;;;;;;;;30.50;67.80;;;;;;5018650;28;19916;-88
2022/08/07 09:17:52;;;;;;;2.42;1.70;;;30.20;69.70;;;;;;5017731;28;20023;-88
2022/08/07 09:20:44;;;;;;;5.35;1.60;;;30.50;70.50;;;;;;5034381;28;20088;-88
2022/08/07 09:23:28;;;;;;;2.78;1.40;;;31.80;69.00;;;;;;5036846;28;20041;-83
2022/08/07 09:26:32;;;;;;;3.17;1.60;;;32.90;67.90;;;;;;5035075;28;20507;-82
2022/08/07 09:29:07;;;;;;;1.52;1.20;;;33.20;66.50;;;;;;4957914;28;20500;-82
2022/08/07 09:31:52;;;;;;;;;;;33.40;67.10;;;;;;5023341;28;20056;-82
2022/08/07 09:34:30;;;;;;;2.38;1.15;;;33.70;65.30;;;;;;5044427;28;19917;-82
2022/08/07 09:37:06;;;;;;;2.20;1.50;;;34.00;64.90;;;;;;5036525;28;20037;-82
2022/08/07 09:39:40;;;;;;;2.75;1.33;;;34.20;64.70;;;;;;5019791;28;20472;-83
2022/08/07 09:42:43;;;;;;;2.90;1.67;;;34.60;65.30;;;;;;5033349;28;20136;-82
2022/08/07 09:45:54;;;;;;;1.92;1.48;;;34.60;63.90;;;;;;5017576;28;20048;-82
2022/08/07 09:48:48;;;;;;;2.15;1.30;;;34.00;65.10;;;;;;5036680;28;20111;-82
2022/08/07 09:51:24;;;;;;;3.72;1.27;;;33.10;64.20;;;;;;5036486;28;20048;-82
2022/08/07 09:53:54;;;;;;;3.25;1.40;;;31.60;65.30;;;;;;5020247;28;20533;-82
2022/08/07 09:57:15;;;;;;;3.17;1.50;;;29.90;68.60;;;;;;5031810;28;20120;-82
2022/08/07 09:59:59;;;;;;;1.58;1.00;;;28.70;70.70;;;;;;4952097;28;20136;-82
2022/08/07 10:02:28;;;;;;;3.15;1.40;;;29.10;69.80;;;;;;5018711;28;20034;-82
2022/08/07 10:05:18;;;;;;;2.53;1.40;;;30.20;68.30;;;;;;5019499;28;20040;-82
2022/08/07 10:08:08;;;;;;;1.92;1.20;;;30.90;68.00;;;;;;5037270;28;20404;-82
2022/08/07 10:10:56;;;;;;;2.10;1.40;;;31.90;67.80;;;;;;5039417;28;20041;-82
2022/08/07 10:13:39;;;;;;;2.50;1.30;;;32.60;66.40;;;;;;5020892;28;20037;-82
2022/08/07 10:16:14;;;;;;;2.92;1.25;;;32.80;67.10;;;;;;5029853;28;20041;-82
2022/08/07 10:18:49;;;;;;;2.10;1.33;;;33.50;65.30;;;;;;5009654;28;20076;-82
2022/08/07 10:21:41;;;;;;;2.80;1.67;;;33.70;63.50;;;;;;5035810;28;20124;-82
2022/08/07 10:24:38;;;;;;;2.13;1.50;;;34.00;64.70;;;;;;5011628;28;20060;-82
2022/08/07 10:27:41;;;;;;;2.42;1.17;;;34.40;63.30;;;;;;5017899;28;20527;-81
2022/08/07 10:30:13;;;;;;;1.83;1.40;;;34.40;61.50;;;;;;5044204;28;20037;-82
2022/08/07 10:32:45;;;;;;;2.28;1.25;;;34.60;63.30;;;;;;5015950;28;20116;-82
2022/08/07 10:35:16;;;;;;;3.38;1.50;;;34.20;61.30;;;;;;5011257;28;20112;-81
2022/08/07 10:38:05;;;;;;;1.75;1.38;;;34.00;64.90;;;;;;5025769;28;20067;-82
2022/08/07 10:40:46;;;;;;;2.55;1.48;;;33.40;63.20;;;;;;5046933;28;20056;-81
2022/08/07 10:43:29;;;;;;;2.58;1.08;;;31.80;64.40;;;;;;5035777;28;20042;-81
2022/08/07 10:45:59;;;;;;;2.65;1.40;;;30.40;66.80;;;;;;5041011;28;20422;-82
2022/08/07 10:48:37;;;;;;;1.35;1.25;;;29.00;68.30;;;;;;5027421;28;20407;-81
2022/08/07 10:51:09;;;;;;;2.47;1.55;;;29.00;70.10;;;;;;5019717;28;20045;-81
2022/08/07 10:53:57;;;;;;;2.10;1.45;;;29.80;67.20;;;;;;5009961;28;20124;-82
2022/08/07 10:56:41;;;;;;;2.90;1.42;;;29.60;67.90;;;;;;5031023;28;20399;-82
2022/08/07 10:59:25;;;;;;;2.92;1.35;;;29.30;68.20;;;;;;5023715;28;20040;-83
2022/08/07 11:02:15;;;;;;;2.90;1.52;;;30.20;70.20;;;;;;5002759;28;20038;-83
2022/08/07 11:05:18;;;;;;;3.53;1.48;;;30.50;67.00;;;;;;5015556;28;20045;-89
2022/08/07 11:08:04;;;;;;;2.00;1.42;;;31.00;68.50;;;;;;5001607;28;20050;-89
2022/08/07 11:10:58;;;;;;;1.55;1.23;;;30.90;66.60;;;;;;5045747;28;20075;-89
2022/08/07 11:13:54;;;;;;;2.90;1.17;;;30.90;67.70;;;;;;4995759;28;20471;-89
2022/08/07 11:16:23;;;;;;;2.45;1.50;;;31.00;68.80;;;;;;5007186;28;20045;-90
2022/08/07 11:19:18;;;;;;;3.85;1.40;;;31.90;68.10;;;;;;5024906;28;20037;-89
2022/08/07 11:21:54;;;;;;;3.50;1.38;;;31.30;66.60;;;;;;5015815;28;20383;-84
2022/08/07 11:24:49;;;;;;;2.65;1.50;;;30.00;69.10;;;;;;5032362;28;20120;-84
2022/08/07 11:27:23;;;;;;;2.65;1.33;;;29.50;71.20;;;;;;5019541;28;20048;-83
2022/08/07 11:30:14;;;;;;;3.35;1.52;;;29.50;69.00;;;;;;5022214;28;20134;-83
2022/08/07 11:33:08;;;;;;;2.97;1.80;;;28.70;68.60;;;;;;5028405;28;20065;-83
2022/08/07 11:35:53;;;;;;;1.58;1.10;;;28.10;70.60;;;;;;5016171;28;20421;-83
2022/08/07 11:38:35;;;;;;;2.25;1.30;;;27.40;71.40;;;;;;5031594;28;20391;-83
2022/08/07 11:41:14;;;;;;;3.17;1.42;;;26.80;73.10;;;;;;5035903;28;20501;-83
2022/08/07 11:44:09;;;;;;;2.30;1.40;;;26.20;73.70;;;;;;5035754;28;20076;-83
2022/08/07 11:46:51;;;;;;;2.08;1.45;;;25.70;75.50;;;;;;5010798;28;20127;-83
2022/08/07 11:49:20;;;;;;;3.85;1.83;;;25.30;75.60;;;;;;5021221;28;20041;-83
2022/08/07 11:52:30;;;;;;;2.83;1.40;;;25.30;76.70;;;;;;5038994;28;20052;-83
2022/08/07 11:55:17;;;;;;;2.30;1.48;;;25.00;77.40;;;;;;5018821;28;20091;-83
2022/08/07 11:58:04;;;;;;;3.80;1.48;;;25.10;77.10;;;;;;5024641;28;20033;-83
2022/08/07 12:00:45;;;;;;;1.60;1.15;;;25.10;77.30;;;;;;5037860;28;20068;-83
2022/08/07 12:03:37;;;;;;;2.22;1.50;;;25.10;76.70;;;;;;5037985;28;20056;-83
2022/08/07 12:06:36;;;;;;;2.17;1.30;;;25.50;78.30;;;;;;5032250;28;20048;-83
2022/08/07 12:09:21;;;;;;;2.63;1.63;;;26.50;76.00;;;;;;5042279;28;20047;-83
2022/08/07 12:12:12;;;;;;;2.38;1.10;;;27.30;75.70;;;;;;5028920;28;20124;-88
2022/08/07 12:14:48;;;;;;;2.05;1.25;;;28.10;75.60;;;;;;5014847;28;20365;-88
2022/08/07 12:17:19;;;;;;;1.40;1.00;;;28.30;71.80;;;;;;5019260;28;20125;-88
2022/08/07 12:19:59;;;;;;;2.42;1.13;;;28.40;74.00;;;;;;5026572;28;20042;-87
2022/08/07 12:22:43;;;;;;;2.83;1.67;;;28.80;71.10;;;;;;5037727;28;20510;-88
2022/08/07 12:28:24;;;;;;;1.42;1.20;;;28.90;71.40;;;;;;5027168;28;20042;-87
2022/08/07 12:30:54;;;;;;;3.10;1.30;;;29.20;71.60;;;;;;5055295;28;20053;-88
2022/08/07 12:33:23;;;;;;;2.10;1.42;;;29.10;73.70;;;;;;5038033;28;20089;-88
2022/08/07 12:35:52;;;;;;;1.52;1.10;;;28.90;70.30;;;;;;5038315;28;20052;-89
2022/08/07 12:38:19;;;;;;;1.77;1.23;;;28.90;72.30;;;;;;5011316;28;20029;-88
2022/08/07 12:40:48;;;;;;;3.03;1.48;;;29.00;69.30;;;;;;4982340;28;20049;-89
2022/08/07 12:43:17;;;;;;;2.88;1.52;;;29.20;71.00;;;;;;4999408;28;20082;-83
2022/08/07 12:45:42;;;;;;;1.77;1.27;;;29.00;68.70;;;;;;5003989;28;20057;-84
2022/08/07 12:48:38;;;;;;;1.88;0.85;;;29.10;69.60;;;;;;5028685;28;20049;-84
2022/08/07 12:51:24;;;;;;;1.67;1.20;;;29.20;71.30;;;;;;5034585;28;20141;-83
2022/08/07 12:54:16;;;;;;;;;;;29.40;70.10;;;;;;5035288;28;20042;-83
2022/08/07 12:56:45;;;;;;;1.38;1.08;;;29.50;68.40;;;;;;5048398;28;19943;-83
2022/08/07 12:59:17;;;;;;;1.08;0.80;;;29.60;70.20;;;;;;5033275;28;20464;-83
2022/08/07 13:02:20;;;;;;;0.70;0.70;;;29.40;68.90;;;;;;5017485;28;20038;-83
2022/08/07 13:05:28;;;;;;;2.05;0.90;;;29.40;68.40;;;;;;5014691;28;20057;-84
2022/08/07 13:08:01;;;;;;;1.90;0.90;;;29.00;67.60;;;;;;5018158;28;20053;-83
2022/08/07 13:10:47;;;;;;;2.97;1.13;;;28.80;69.30;;;;;;5011468;28;20084;-83
2022/08/07 13:13:26;;;;;;;1.55;0.85;;;28.70;67.40;;;;;;5049379;28;20062;-83
2022/08/07 13:16:14;;;;;;;1.38;0.82;;;28.60;68.90;;;;;;5034365;28;20045;-83
2022/08/07 13:19:01;;;;;;;1.25;0.90;;;28.10;67.80;;;;;;5029531;28;20072;-84
2022/08/07 13:21:43;;;;;;;4.00;1.00;;;27.80;68.90;;;;;;5017947;28;20053;-83
2022/08/07 13:24:26;;;;;;;1.80;0.90;;;27.80;68.60;;;;;;5011727;28;20048;-83
2022/08/07 13:27:04;;;;;;;1.27;0.88;;;27.70;68.30;;;;;;4997962;28;20096;-83
2022/08/07 13:29:56;;;;;;;3.38;1.02;;;27.80;69.80;;;;;;5014237;28;20477;-83